Hualapai Flat, Nevada Weather observations

Data are for 10 minute period ending at time listed.
 Day   Time   Solar   Ave.   Ave.  Ave.  Vector  Max.   Baro.   Total    
  of    of     Rad.   Air    Rel.  Wind   Wind   Wind  Press.  Precip.   
Year   Day            Temp.  Hum.  Speed  Dir.   Gust                    
2015   (PST)  Kw/m2    F      %     mph   deg.    mph    mb.     in.     
-------------------------------------------------------------------------
  61   14:30   0.06   44.0    54   13.1   336    18.7   867.0    0.00 
  61   14:40   0.10   42.4    60    7.4    12    12.7   867.1    0.00 
  61   14:50   0.50   42.8    65    6.5    30    12.2   866.8    0.00 
  61   15:00   0.53   44.4    60    2.5    52     4.8   866.7    0.00 
  61   15:10   0.45   46.2    55    3.4   137     6.5   866.8    0.00 
  61   15:20   0.15   45.5    53    3.7   114     8.1   866.9    0.00 
  61   15:30   0.16   45.2    52    5.3   141     8.4   866.9    0.00 
  61   15:40   0.19   45.8    50    6.3   146     8.7   866.8    0.00 
  61   15:50   0.14   45.7    51    8.2   152    11.6   866.7    0.00 
  61   16:00   0.13   45.8    50    8.9   158    12.2   866.7    0.00 
  61   16:10   0.11   46.2    49    8.9   167    12.3   866.6    0.00 
  61   16:20   0.09   46.6    48    7.4   175    10.3   866.7    0.00 
  61   16:30   0.11   46.4    49    6.7   156    11.2   866.8    0.00 
  61   16:40   0.10   47.0    48    7.3   165    10.4   866.8    0.00 
  61   16:50   0.06   46.7    47    3.5   156     5.8   866.9    0.00 
  61   17:00   0.06   45.1    50    2.7   133     4.9   866.9    0.00 
  61   17:10   0.04   44.9    51    2.0   130     3.9   867.0    0.00 
  61   17:20   0.02   44.6    51    2.9   165     4.5   867.0    0.00 
  61   17:30   0.02   44.5    53    0.8   194     1.8   867.0    0.00 
  61   17:40   0.01   44.3    52    1.1   166     2.3   867.2    0.00 
  61   17:50   0.01   44.0    52    3.1   324     8.6   867.3    0.00 
  61   18:00   0.00   44.2    48    5.0     2     7.2   867.4    0.00 
  61   18:10   0.00   42.7    51    7.0   335    10.4   867.6    0.00 
  61   18:20   0.00   41.0    56    5.8    15     8.8   867.8    0.00 
  61   18:30   0.00   40.3    57    3.9   318     6.0   867.9    0.00 
  61   18:40   0.00   41.2    54    3.4   315     6.4   868.0    0.00 
  61   18:50   0.00   40.8    55    3.7   291     5.2   868.2    0.00 
  61   19:00   0.00   40.5    55    3.3   287     5.8   868.3    0.00 
  61   19:10   0.00   42.0    50    3.2   310     6.7   868.4    0.00 
  61   19:20   0.00   43.6    42    4.0   310     6.8   868.6    0.00 
  61   19:30   0.00   44.3    41    1.9   329     5.0   868.6    0.00 
  61   19:40   0.00   42.4    46    4.6   314     5.8   868.7    0.00 
  61   19:50   0.00   41.4    48    5.2   297     6.2   869.0    0.00 
  61   20:00   0.00   41.7    46    4.8   334     8.6   869.0    0.00 
  61   20:10   0.00   42.2    45    1.9   311     3.7   869.2    0.00 
  61   20:20   0.00   41.8    46    4.2   316     8.2   869.3    0.00 
  61   20:30   0.00   41.3    49    6.0   317     8.3   869.4    0.00 
  61   20:40   0.00   40.9    50    4.8   302     6.1   869.5    0.00 
  61   20:50   0.00   40.6    51    4.2   284     5.6   869.6    0.00 
  61   21:00   0.00   39.7    54    4.5   285     5.9   869.8    0.00 
  61   21:10   0.00   40.2    55    5.6   313     8.6   870.0    0.00 
  61   21:20   0.00   40.9    54    6.7   314    10.6   870.0    0.00 
  61   21:30   0.00   40.9    54    7.2   319     9.9   870.1    0.00 
  61   21:40   0.00   40.3    56    4.9   318     6.4   870.2    0.00 
  61   21:50   0.00   39.9    57    4.0   327     5.0   870.3    0.00 
  61   22:00   0.00   40.2    56    3.7   321     5.0   870.3    0.00 
  61   22:10   0.00   39.8    58    4.6   322     5.8   870.4    0.00 
  61   22:20   0.00   39.2    59    4.7   346     7.3   870.6    0.00 
  61   22:30   0.00   38.3    60    5.1   326     6.9   870.7    0.00 
  61   22:40   0.00   38.9    58    4.4   331     5.9   870.9    0.00 
  61   22:50   0.00   39.2    59    7.7   339    14.3   871.1    0.00 
  61   23:00   0.00   38.9    65   11.9   350    15.7   871.3    0.00 
  61   23:10   0.00   37.6    70    8.1   345    13.4   871.5    0.00 
  61   23:20   0.00   36.6    72    5.9     3     8.2   871.7    0.00 
  61   23:30   0.00   36.3    73    5.3   348     8.8   871.7    0.00 
  61   23:40   0.00   36.4    72    6.1   344    12.3   871.8    0.00 
  61   23:50   0.00   37.6    68    9.0   337    13.7   871.9    0.00 
  62    0:00   0.00   37.6    69    9.3   331    12.1   872.0    0.00 
  62    0:10   0.00   37.7    66   10.4   331    15.6   872.1    0.00 
  62    0:20   0.00   37.4    62   11.6   347    16.4   872.1    0.00 
  62    0:30   0.00   36.8    62   12.9   352    17.2   872.2    0.00 
  62    0:40   0.00   36.9    61   12.8   346    19.1   872.3    0.00 
  62    0:50   0.00   37.1    60   12.2   336    15.9   872.4    0.00 
  62    1:00   0.00   37.2    59   11.0   335    15.6   872.5    0.00 
  62    1:10   0.00   36.7    59   10.8   334    15.4   872.6    0.00 
  62    1:20   0.00   36.0    60   10.8   335    15.8   872.7    0.00 
  62    1:30   0.00   35.8    61   11.0   332    16.3   872.8    0.00 
  62    1:40   0.00   34.8    64    8.4   328    12.2   872.9    0.00 
  62    1:50   0.00   34.4    65    6.6   319     9.0   873.0    0.00 
  62    2:00   0.00   33.4    66    6.9   330     9.6   873.1    0.00 
  62    2:10   0.00   33.1    66    8.9   330    12.1   873.1    0.00 
  62    2:20   0.00   34.4    63    8.8   323    12.9   873.1    0.00 
  62    2:30   0.00   34.1    62    8.0   332     9.9   873.3    0.00 
  62    2:40   0.00   32.8    65    8.0   347    11.3   873.2    0.00 
  62    2:50   0.00   32.2    66    8.3   343    12.9   873.3    0.00 
  62    3:00   0.00   32.1    67   11.7   329    18.9   873.4    0.00 
  62    3:10   0.00   33.0    60   14.1   331    19.1   873.5    0.00 
  62    3:20   0.00   33.4    56   14.7   332    20.4   873.6    0.00 
  62    3:30   0.00   33.9    52   15.0   328    20.4   873.7    0.00 
  62    3:40   0.00   33.9    51   12.1   321    18.3   873.9    0.00 
  62    3:50   0.00   33.7    51   10.2   314    15.5   874.0    0.00 
  62    4:00   0.00   33.1    51    9.7   314    14.8   874.2    0.00 
  62    4:10   0.00   33.2    51   10.4   322    14.6   874.3    0.00 
  62    4:20   0.00   33.1    52    9.0   324    13.8   874.4    0.00 
  62    4:30   0.00   33.0    51    9.3   320    14.2   874.5    0.00 
  62    4:40   0.00   32.9    52   10.2   322    15.0   874.5    0.00 
  62    4:50   0.00   32.5    53    7.1   317    10.7   874.6    0.00 
  62    5:00   0.00   32.2    55    5.1   319     7.3   874.8    0.00 
  62    5:10   0.00   31.9    56    7.6   341    10.7   874.8    0.00 
  62    5:20   0.00   31.9    56    9.7   358    12.1   874.8    0.00 
  62    5:30   0.00   31.2    57    9.2   356    11.2   874.8    0.00 
  62    5:40   0.00   30.1    58    8.0   355    10.8   874.9    0.00 
  62    5:50   0.00   29.6    58    5.0    52     8.2   875.2    0.00 
  62    6:00   0.00   27.9    63    3.7    28     4.7   875.4    0.00 
  62    6:10   0.00   27.7    64    4.4   321     5.8   875.5    0.00 
  62    6:20   0.00   28.1    61    4.4   306     6.1   875.5    0.00 
  62    6:30   0.00   27.7    61    7.2   316    10.0   875.6    0.00 
  62    6:40   0.02   28.3    60    7.3   335    11.0   875.8    0.00 
  62    6:50   0.04   26.4    64    7.1   335     8.5   875.9    0.00 
  62    7:00   0.07   26.6    64    7.5   330     9.1   875.9    0.00 
  62    7:10   0.09   29.2    58    8.2   319    11.0   876.0    0.00 
  62    7:20   0.12   30.9    54    7.8   318    12.1   876.2    0.00 
  62    7:30   0.14   31.5    53    7.6   320    11.8   876.3    0.00 
  62    7:40   0.17   31.7    54   10.5   331    13.8   876.4    0.00 
  62    7:50   0.20   32.4    53    9.2   343    13.0   876.4    0.00 
  62    8:00   0.23   33.0    53   10.3   340    14.3   876.4    0.00 
  62    8:10   0.28   33.5    52   13.5   348    18.9   876.4    0.00 
  62    8:20   0.32   34.1    50   13.2   353    17.8   876.5    0.00 
  62    8:30   0.35   34.3    49   12.7   350    16.8   876.5    0.00 
  62    8:40   0.38   35.4    45   13.1   358    18.3   876.5    0.00 
  62    8:50   0.41   35.5    44   10.5   348    20.0   876.6    0.00 
  62    9:00   0.44   36.2    43    9.3   354    12.8   876.6    0.00 
  62    9:10   0.47   37.0    40    9.5    11    14.6   876.6    0.00 
  62    9:20   0.50   37.5    38   10.3    28    15.1   876.6    0.00 
  62    9:30   0.52   37.6    36   10.8   354    16.3   876.6    0.00 
  62    9:40   0.55   38.3    34   10.7    15    17.5   876.6    0.00 
  62    9:50   0.57   38.4    33    9.0    41    14.5   876.6    0.00 
  62   10:00   0.59   38.3    33    6.8   341    12.6   876.6    0.00 
  62   10:10   0.61   38.9    32    8.6    20    15.1   876.5    0.00 
  62   10:20   0.64   39.1    32    8.1   341    17.4   876.6    0.00 
  62   10:30   0.64   39.3    32    5.8   320    10.4   876.5    0.00 
  62   10:40   0.66   39.5    30    7.6   334    12.5   876.3    0.00 
  62   10:50   0.68   39.6    30    6.7   334    12.5   876.3    0.00 
  62   11:00   0.69   40.2    30    6.3   296    13.7   876.3    0.00 
  62   11:10   0.71   40.1    30    5.8     7    13.1   876.2    0.00 
  62   11:20   0.71   41.0    28    5.5    11    12.8   876.2    0.00 
  62   11:30   0.72   41.7    28    4.8     6    11.8   876.1    0.00 
  62   11:40   0.73   41.9    29    6.7    33    13.2   876.0    0.00 
  62   11:50   0.73   42.7    28    4.6    30    11.6   876.1    0.00 
  62   12:00   0.74   42.0    28    4.3    21     8.8   876.2    0.00 
  62   12:10   0.74   42.8    28    3.3   265     7.7   876.2    0.00 
  62   12:20   0.74   44.1    27    5.6   272    12.3   876.1    0.00 
  62   12:30   0.73   43.6    28    3.6   345    11.0   876.0    0.00 
  62   12:40   0.73   43.9    26    2.7   343     8.4   876.0    0.00 
  62   12:50   0.72   44.2    25    5.6   124    11.1   876.0    0.00 
  62   13:00   0.71   43.5    29    6.7   103    12.3   875.8    0.00 
  62   13:10   0.71   43.6    29    5.0    99    11.4   875.7    0.00 
  62   13:20   0.69   43.3    28    4.9    79    10.4   875.5    0.00 
  62   13:30   0.68   43.6    28    3.6     8     9.4   875.4    0.00 
  62   13:40   0.67   44.9    28    4.9    88    10.0   875.3    0.00 
  62   13:50   0.65   44.4    27    7.2   104    13.2   875.3    0.00 
  62   14:00   0.63   44.3    27    7.1   104    12.1   875.3    0.00 
  62   14:10   0.61   44.3    27    6.9   105    11.5   875.2    0.00 
  62   14:20   0.59   45.1    26    5.2   120    10.7   875.1    0.00 

Return to Hualapai Flat graphs page.


Western Regional Climate Center,wrcc@dri.edu